Time;durP1;ratioP1;P1;durP2;ratioP2;P2;SDS_P1;SDS_P2;PMS_P1;PMS_P2;Temp;Humidity;BMP_temperature;BMP_pressure;BME280_temperature;BME280_humidity;BME280_pressure;Samples;Min_cycle;Max_cycle;Signal;HPM_P1;HPM_P2
2021/11/17 02:25:44;;;;;;;8.53;7.57;;;;;;;;;;4938384;29;20252;-87
2021/11/17 02:28:38;;;;;;;10.17;7.93;;;;;;;;;;4938112;29;20247;-88
2021/11/17 02:31:28;;;;;;;7.80;7.00;;;;;;;;;;4937651;29;20209;-88
2021/11/17 02:34:14;;;;;;;7.20;5.87;;;;;;;;;;4929806;29;20202;-87
2021/11/17 02:36:57;;;;;;;7.37;6.67;;;;;;;;;;4937576;29;20207;-88
2021/11/17 02:39:40;;;;;;;9.10;7.30;;;;;;;;;;4937670;29;20189;-87
2021/11/17 02:42:22;;;;;;;7.87;7.03;;;;;;;;;;4937447;29;20194;-87
2021/11/17 02:45:08;;;;;;;10.30;6.73;;;;;;;;;;4937416;29;20191;-87
2021/11/17 02:47:57;;;;;;;8.10;7.30;;;;;;;;;;4937529;29;20182;-87
2021/11/17 02:50:43;;;;;;;8.27;6.97;;;;;;;;;;4938028;29;20652;-88
2021/11/17 02:53:32;;;;;;;8.37;7.60;;;;;;;;;;4937646;29;20211;-88
2021/11/17 02:56:30;;;;;;;8.77;7.87;;;;;;;;;;4937357;29;20202;-87
2021/11/17 02:59:15;;;;;;;7.67;6.60;;;;;;;;;;4937238;29;20242;-87
2021/11/17 03:02:09;;;;;;;8.43;7.03;;;;;;;;;;4937414;29;20627;-88
2021/11/17 03:04:55;;;;;;;7.03;6.30;;;;;;;;;;4937082;29;20242;-88
2021/11/17 03:07:39;;;;;;;7.57;6.47;;;;;;;;;;4942512;28;20247;-88
2021/11/17 03:10:31;;;;;;;8.87;6.67;;;;;;;;;;4975604;28;20189;-87
2021/11/17 03:13:26;;;;;;;7.60;6.80;;;;;;;;;;4975356;28;20229;-87
2021/11/17 03:16:19;;;;;;;8.57;6.93;;;;;;;;;;4972651;28;20219;-87
2021/11/17 03:18:59;;;;;;;8.07;6.23;;;;;;;;;;4975248;28;20201;-86
2021/11/17 03:21:42;;;;;;;7.70;6.37;;;;;;;;;;4975417;28;20186;-88
2021/11/17 03:24:35;;;;;;;7.53;6.73;;;;;;;;;;4975546;28;20268;-87
2021/11/17 03:27:17;;;;;;;8.30;7.00;;;;;;;;;;4975421;28;20185;-88
2021/11/17 03:30:18;;;;;;;7.60;6.83;;;;;;;;;;4975200;28;20240;-87
2021/11/17 03:33:04;;;;;;;9.33;7.40;;;;;;;;;;4962205;28;20196;-88
2021/11/17 03:35:48;;;;;;;7.90;7.03;;;;;;;;;;4975474;28;20280;-87
2021/11/17 03:38:39;;;;;;;10.40;8.77;;;;;;;;;;4974971;28;20225;-87
2021/11/17 03:41:29;;;;;;;9.47;7.73;;;;;;;;;;4971146;28;20197;-85
2021/11/17 03:44:28;;;;;;;8.83;7.37;;;;;;;;;;4974461;28;20193;-86
2021/11/17 03:47:37;;;;;;;7.60;6.87;;;;;;;;;;4968015;28;20674;-85
2021/11/17 03:50:29;;;;;;;8.33;7.53;;;;;;;;;;4895640;29;20212;-85
2021/11/17 03:53:12;;;;;;;7.53;6.03;;;;;;;;;;4896043;29;20208;-85
2021/11/17 03:55:57;;;;;;;9.27;6.50;;;;;;;;;;4895719;29;20203;-85
2021/11/17 03:58:35;;;;;;;6.67;5.97;;;;;;;;;;4895977;29;20208;-86
2021/11/17 04:01:30;;;;;;;6.43;5.83;;;;;;;;;;4894836;29;20206;-85
2021/11/17 04:04:19;;;;;;;6.47;5.30;;;;;;;;;;4883386;29;20204;-86
2021/11/17 04:07:07;;;;;;;7.87;5.33;;;;;;;;;;4894254;29;20308;-85
2021/11/17 04:09:49;;;;;;;5.03;4.53;;;;;;;;;;4888476;29;20204;-86
2021/11/17 04:12:33;;;;;;;5.03;4.57;;;;;;;;;;4891114;29;20189;-87
2021/11/17 04:15:14;;;;;;;14.17;10.43;;;;;;;;;;4877180;29;20239;-87
2021/11/17 04:17:54;;;;;;;10.80;8.33;;;;;;;;;;4876779;29;20224;-86
2021/11/17 04:20:38;;;;;;;9.07;7.87;;;;;;;;;;4900186;29;20201;-87
2021/11/17 04:23:21;;;;;;;59.93;40.13;;;;;;;;;;4954745;29;20205;-86
2021/11/17 04:26:18;;;;;;;103.07;71.70;;;;;;;;;;4954702;29;20197;-87
2021/11/17 04:28:58;;;;;;;54.57;39.47;;;;;;;;;;4954111;29;20651;-86
2021/11/17 04:31:44;;;;;;;41.90;28.47;;;;;;;;;;4954227;28;20281;-87
2021/11/17 04:34:35;;;;;;;26.00;20.50;;;;;;;;;;4954320;29;20746;-86
2021/11/17 04:37:34;;;;;;;23.70;20.27;;;;;;;;;;4954511;28;20214;-87
2021/11/17 04:40:40;;;;;;;28.40;19.23;;;;;;;;;;4953787;28;20206;-87
2021/11/17 04:43:32;;;;;;;30.37;21.50;;;;;;;;;;4970209;28;20220;-87
2021/11/17 04:46:12;;;;;;;16.93;12.50;;;;;;;;;;4974206;28;20728;-87
2021/11/17 04:48:52;;;;;;;10.60;9.33;;;;;;;;;;4973809;28;20189;-86
2021/11/17 04:51:43;;;;;;;10.10;8.77;;;;;;;;;;4973266;28;20204;-86
2021/11/17 04:54:28;;;;;;;6.33;4.87;;;;;;;;;;4973098;28;20724;-87
2021/11/17 04:57:27;;;;;;;5.13;3.50;;;;;;;;;;4973274;28;20216;-87
2021/11/17 05:00:10;;;;;;;4.00;3.07;;;;;;;;;;4973520;28;20251;-86
2021/11/17 05:02:52;;;;;;;4.23;3.07;;;;;;;;;;4973020;28;20209;-87
2021/11/17 05:05:35;;;;;;;3.00;2.80;;;;;;;;;;4973775;28;20185;-87
2021/11/17 05:08:11;;;;;;;4.07;3.67;;;;;;;;;;4972989;28;20232;-87
2021/11/17 05:10:51;;;;;;;3.97;3.63;;;;;;;;;;4973301;28;20181;-87
2021/11/17 05:13:30;;;;;;;9.03;5.30;;;;;;;;;;4973476;28;20185;-87
2021/11/17 05:16:09;;;;;;;12.53;7.80;;;;;;;;;;4973382;28;20904;-87
2021/11/17 05:18:44;;;;;;;9.90;6.27;;;;;;;;;;4973180;28;20212;-87
2021/11/17 05:21:24;;;;;;;11.87;4.83;;;;;;;;;;4973409;28;20188;-87
2021/11/17 05:24:11;;;;;;;3.50;3.03;;;;;;;;;;4973604;28;20654;-87
2021/11/17 05:26:50;;;;;;;6.17;3.20;;;;;;;;;;4973344;28;20189;-87
2021/11/17 05:29:41;;;;;;;4.87;2.83;;;;;;;;;;4973263;28;20220;-87
2021/11/17 05:32:24;;;;;;;3.20;2.67;;;;;;;;;;4973517;28;20181;-88
2021/11/17 05:35:05;;;;;;;3.30;2.97;;;;;;;;;;4973961;28;20193;-88
2021/11/17 05:37:42;;;;;;;4.90;3.47;;;;;;;;;;4973563;28;20304;-87
2021/11/17 05:40:26;;;;;;;7.90;5.27;;;;;;;;;;4973226;28;20645;-87
2021/11/17 05:43:05;;;;;;;10.97;7.13;;;;;;;;;;4973431;28;20192;-87
2021/11/17 05:45:46;;;;;;;8.77;6.63;;;;;;;;;;4973448;28;20181;-87
2021/11/17 05:48:26;;;;;;;12.97;9.37;;;;;;;;;;4973293;28;20280;-87
2021/11/17 05:51:06;;;;;;;10.93;8.73;;;;;;;;;;4973925;28;20197;-87
2021/11/17 05:53:47;;;;;;;14.40;11.43;;;;;;;;;;4973571;28;20264;-87
2021/11/17 05:56:30;;;;;;;12.27;11.07;;;;;;;;;;4973225;28;20189;-87
2021/11/17 05:59:10;;;;;;;12.70;9.97;;;;;;;;;;4973296;28;20599;-86
2021/11/17 06:01:59;;;;;;;6.80;5.43;;;;;;;;;;4973018;28;20193;-87
2021/11/17 06:04:26;;;;;;;6.87;5.07;;;;;;;;;;4974263;28;20193;-87
2021/11/17 06:06:52;;;;;;;13.00;8.33;;;;;;;;;;4976797;28;20279;-87
2021/11/17 06:09:19;;;;;;;13.97;10.83;;;;;;;;;;4976581;28;20225;-88
2021/11/17 06:11:50;;;;;;;21.33;14.87;;;;;;;;;;4976893;28;20268;-87
2021/11/17 06:14:22;;;;;;;16.33;12.53;;;;;;;;;;4976950;28;20200;-87
2021/11/17 06:16:51;;;;;;;13.30;11.87;;;;;;;;;;4976711;28;20190;-87
2021/11/17 06:19:22;;;;;;;10.60;9.10;;;;;;;;;;4976470;28;20221;-87
2021/11/17 06:21:49;;;;;;;11.10;9.27;;;;;;;;;;4976850;28;20193;-88
2021/11/17 06:24:20;;;;;;;10.20;9.17;;;;;;;;;;4976600;28;20233;-86
2021/11/17 06:26:49;;;;;;;12.70;9.90;;;;;;;;;;4976628;28;20204;-87
2021/11/17 06:29:20;;;;;;;12.10;10.07;;;;;;;;;;4976739;28;20204;-87
2021/11/17 06:31:48;;;;;;;9.50;8.33;;;;;;;;;;4976642;28;20624;-87
2021/11/17 06:34:33;;;;;;;11.47;10.13;;;;;;;;;;4976392;28;20197;-88
2021/11/17 06:37:02;;;;;;;13.45;10.50;;;;;;;;;;4976579;28;20581;-88
2021/11/17 06:39:29;;;;;;;14.30;10.90;;;;;;;;;;4976275;28;20440;-87
2021/11/17 06:41:59;;;;;;;15.17;10.40;;;;;;;;;;4976186;28;20204;-87
2021/11/17 06:44:27;;;;;;;10.77;8.57;;;;;;;;;;4976074;28;20243;-87
2021/11/17 06:46:54;;;;;;;10.30;8.30;;;;;;;;;;4976106;28;20211;-87
2021/11/17 06:49:22;;;;;;;6.30;5.53;;;;;;;;;;4976065;28;20204;-87
2021/11/17 06:51:49;;;;;;;8.37;6.40;;;;;;;;;;4976165;28;20216;-87
2021/11/17 06:54:17;;;;;;;12.30;9.70;;;;;;;;;;4975955;28;20197;-87
2021/11/17 06:56:44;;;;;;;31.47;25.57;;;;;;;;;;4975801;28;20207;-88
2021/11/17 06:59:13;;;;;;;30.83;26.87;;;;;;;;;;4976173;28;20627;-88
2021/11/17 07:01:40;;;;;;;18.27;16.43;;;;;;;;;;4975952;28;20201;-87
2021/11/17 07:04:08;;;;;;;13.20;11.40;;;;;;;;;;4975883;28;20291;-88
2021/11/17 07:06:36;;;;;;;9.50;8.50;;;;;;;;;;4976004;28;20205;-87
2021/11/17 07:09:05;;;;;;;7.33;5.20;;;;;;;;;;4975563;28;20236;-87
2021/11/17 07:11:37;;;;;;;4.93;4.50;;;;;;;;;;4975580;28;20225;-87
2021/11/17 07:14:05;;;;;;;5.77;4.43;;;;;;;;;;4975844;28;20650;-87
2021/11/17 07:16:34;;;;;;;6.27;5.50;;;;;;;;;;4974697;28;20221;-88
2021/11/17 07:19:02;;;;;;;6.73;4.93;;;;;;;;;;4975644;28;20236;-87
2021/11/17 07:21:29;;;;;;;5.73;4.97;;;;;;;;;;4975576;28;20196;-88
2021/11/17 07:23:57;;;;;;;9.80;5.20;;;;;;;;;;4975580;28;20205;-87
2021/11/17 07:26:24;;;;;;;6.30;5.70;;;;;;;;;;4975456;28;20207;-87
2021/11/17 07:28:52;;;;;;;8.03;5.53;;;;;;;;;;4974750;28;20326;-88
2021/11/17 07:31:19;;;;;;;6.57;5.90;;;;;;;;;;4975618;28;20208;-87
2021/11/17 07:33:48;;;;;;;5.57;4.53;;;;;;;;;;4975328;28;20627;-87
2021/11/17 07:36:16;;;;;;;5.57;4.00;;;;;;;;;;4975114;28;20228;-87
2021/11/17 07:38:44;;;;;;;4.87;4.10;;;;;;;;;;4974901;28;20701;-88
2021/11/17 07:41:11;;;;;;;5.47;4.60;;;;;;;;;;4974974;28;20236;-87
2021/11/17 07:43:39;;;;;;;5.40;3.93;;;;;;;;;;4975242;28;20236;-87
2021/11/17 07:46:06;;;;;;;12.57;9.97;;;;;;;;;;4974805;28;20673;-87
2021/11/17 07:48:34;;;;;;;4.27;3.87;;;;;;;;;;4974704;28;20194;-88
2021/11/17 07:51:04;;;;;;;10.07;9.07;;;;;;;;;;4975042;28;20211;-87
2021/11/17 07:53:32;;;;;;;5.63;4.13;;;;;;;;;;4975022;28;20208;-87
2021/11/17 07:56:01;;;;;;;3.53;3.20;;;;;;;;;;4975030;28;20201;-87
2021/11/17 07:58:30;;;;;;;4.20;3.50;;;;;;;;;;4974727;28;20235;-88
2021/11/17 08:00:59;;;;;;;4.90;3.83;;;;;;;;;;4975067;28;20200;-87
2021/11/17 08:03:29;;;;;;;4.87;4.40;;;;;;;;;;4974648;28;20291;-86
2021/11/17 08:05:56;;;;;;;3.70;3.40;;;;;;;;;;4974684;28;20204;-87
2021/11/17 08:08:27;;;;;;;7.63;4.80;;;;;;;;;;4974469;28;20333;-87
2021/11/17 08:10:55;;;;;;;8.13;5.53;;;;;;;;;;4974603;28;20200;-87
2021/11/17 08:13:22;;;;;;;6.10;5.47;;;;;;;;;;4974708;28;20201;-87
2021/11/17 08:15:49;;;;;;;13.67;10.90;;;;;;;;;;4974369;28;20197;-87
2021/11/17 08:18:17;;;;;;;12.60;8.30;;;;;;;;;;4974544;28;20246;-88
2021/11/17 08:20:44;;;;;;;5.20;3.20;;;;;;;;;;4975044;28;20239;-87
2021/11/17 08:23:12;;;;;;;4.73;4.20;;;;;;;;;;4974733;28;20279;-87
2021/11/17 08:25:41;;;;;;;3.33;2.23;;;;;;;;;;4974257;28;20193;-87
2021/11/17 08:28:10;;;;;;;3.73;2.60;;;;;;;;;;4974197;28;20208;-87
2021/11/17 08:30:38;;;;;;;4.60;3.97;;;;;;;;;;4974394;28;20338;-87
2021/11/17 08:33:07;;;;;;;5.47;3.60;;;;;;;;;;4974475;28;20204;-87
2021/11/17 08:35:34;;;;;;;6.10;3.10;;;;;;;;;;4974575;28;20627;-87
2021/11/17 08:38:02;;;;;;;4.33;3.30;;;;;;;;;;4974003;28;20229;-87
2021/11/17 08:40:32;;;;;;;7.30;2.83;;;;;;;;;;4974107;28;20673;-87
2021/11/17 08:43:01;;;;;;;5.43;3.40;;;;;;;;;;4974270;28;20197;-87
2021/11/17 08:45:29;;;;;;;2.77;2.37;;;;;;;;;;4973989;28;20681;-86
2021/11/17 08:47:57;;;;;;;5.63;3.23;;;;;;;;;;4974175;28;20287;-87
2021/11/17 08:50:26;;;;;;;3.00;2.53;;;;;;;;;;4973958;28;20291;-87
2021/11/17 08:52:54;;;;;;;7.23;3.13;;;;;;;;;;4974226;28;20240;-87
2021/11/17 08:55:23;;;;;;;4.13;2.37;;;;;;;;;;4973821;28;20203;-87
2021/11/17 08:57:50;;;;;;;3.03;2.60;;;;;;;;;;4973797;28;20300;-87
2021/11/17 09:00:21;;;;;;;9.33;7.03;;;;;;;;;;4974215;28;20267;-87
2021/11/17 09:02:50;;;;;;;4.30;2.53;;;;;;;;;;4974175;28;20189;-87
2021/11/17 09:05:19;;;;;;;2.83;2.53;;;;;;;;;;4973787;28;20715;-87
2021/11/17 09:07:48;;;;;;;7.93;6.20;;;;;;;;;;4973617;28;20243;-87
2021/11/17 09:10:17;;;;;;;18.77;15.83;;;;;;;;;;4974029;28;20204;-87
2021/11/17 09:12:45;;;;;;;10.80;9.70;;;;;;;;;;4973799;28;20296;-87
2021/11/17 09:15:13;;;;;;;16.37;13.80;;;;;;;;;;4973772;28;20267;-87
2021/11/17 09:17:42;;;;;;;15.70;13.80;;;;;;;;;;4973814;28;20284;-87
2021/11/17 09:20:12;;;;;;;5.83;5.23;;;;;;;;;;4973407;28;20268;-87
2021/11/17 09:22:40;;;;;;;29.07;25.80;;;;;;;;;;4974019;28;20628;-87
2021/11/17 09:25:09;;;;;;;7.20;5.20;;;;;;;;;;4973596;28;20201;-86
2021/11/17 09:27:37;;;;;;;14.90;12.27;;;;;;;;;;4973643;28;20205;-87
2021/11/17 09:30:06;;;;;;;8.80;3.30;;;;;;;;;;4973866;28;20352;-87
2021/11/17 09:32:33;;;;;;;2.60;2.40;;;;;;;;;;4973527;28;20205;-87
2021/11/17 09:35:02;;;;;;;4.70;1.50;;;;;;;;;;4973697;28;20201;-88
2021/11/17 09:37:30;;;;;;;5.83;5.23;;;;;;;;;;4973738;28;20756;-87
2021/11/17 09:39:58;;;;;;;5.53;4.97;;;;;;;;;;4975461;28;20231;-87
2021/11/17 09:42:26;;;;;;;22.13;14.87;;;;;;;;;;4977451;28;20240;-87
2021/11/17 09:44:54;;;;;;;13.27;8.13;;;;;;;;;;4977454;28;20201;-87
2021/11/17 09:47:26;;;;;;;4.67;2.60;;;;;;;;;;4977572;28;20205;-87
2021/11/17 09:49:58;;;;;;;1.73;1.63;;;;;;;;;;4977314;28;20276;-87
2021/11/17 09:52:36;;;;;;;4.47;4.07;;;;;;;;;;4977310;28;20229;-87
2021/11/17 09:55:11;;;;;;;8.20;6.53;;;;;;;;;;4977512;28;20575;-88
2021/11/17 09:57:42;;;;;;;3.60;3.03;;;;;;;;;;4976988;28;20227;-87
2021/11/17 10:00:16;;;;;;;2.90;2.00;;;;;;;;;;4977076;28;20209;-87
2021/11/17 10:02:47;;;;;;;3.23;2.07;;;;;;;;;;4977513;28;20193;-87
2021/11/17 10:05:18;;;;;;;2.70;1.97;;;;;;;;;;4977333;28;20185;-87
2021/11/17 10:08:22;;;;;;;3.07;1.80;;;;;;;;;;4976778;28;20241;-87
2021/11/17 10:11:19;;;;;;;5.60;2.27;;;;;;;;;;4976843;28;20201;-87
2021/11/17 10:13:51;;;;;;;2.53;2.07;;;;;;;;;;4977189;28;20198;-88
2021/11/17 10:16:19;;;;;;;3.10;2.43;;;;;;;;;;4976918;28;20193;-87
2021/11/17 10:18:48;;;;;;;2.73;2.30;;;;;;;;;;4976715;28;20232;-87
2021/11/17 10:21:28;;;;;;;2.10;1.73;;;;;;;;;;4976814;28;20200;-87
2021/11/17 10:24:01;;;;;;;2.07;1.73;;;;;;;;;;4976668;28;20276;-87
2021/11/17 10:26:29;;;;;;;2.67;1.60;;;;;;;;;;4976995;28;20211;-87
2021/11/17 10:28:59;;;;;;;5.73;5.23;;;;;;;;;;4976743;28;20204;-87
2021/11/17 10:31:32;;;;;;;3.23;2.23;;;;;;;;;;4976800;28;20185;-87
2021/11/17 10:34:08;;;;;;;4.37;2.00;;;;;;;;;;4976879;28;20189;-87
2021/11/17 10:36:38;;;;;;;2.10;1.90;;;;;;;;;;4976543;28;20185;-87
2021/11/17 10:39:14;;;;;;;4.30;2.87;;;;;;;;;;4976656;28;20617;-88
2021/11/17 10:41:52;;;;;;;2.87;2.57;;;;;;;;;;4976575;28;20558;-88
2021/11/17 10:44:19;;;;;;;1.80;1.70;;;;;;;;;;4976476;28;20321;-88
2021/11/17 10:46:51;;;;;;;2.63;1.70;;;;;;;;;;4976268;28;20208;-88
2021/11/17 10:49:24;;;;;;;6.63;1.77;;;;;;;;;;4976259;28;20186;-87
2021/11/17 10:51:55;;;;;;;6.17;2.20;;;;;;;;;;4975957;28;20193;-88
2021/11/17 10:54:26;;;;;;;6.57;2.73;;;;;;;;;;4976418;28;20193;-87
2021/11/17 10:57:03;;;;;;;6.53;2.50;;;;;;;;;;4976685;28;20195;-88
2021/11/17 10:59:31;;;;;;;5.00;2.20;;;;;;;;;;4977134;28;20303;-88
2021/11/17 11:01:58;;;;;;;5.57;2.80;;;;;;;;;;4976491;28;20201;-87
2021/11/17 11:04:29;;;;;;;3.50;3.20;;;;;;;;;;4975922;28;20209;-88
2021/11/17 11:06:59;;;;;;;5.57;2.40;;;;;;;;;;4975986;28;20193;-88
2021/11/17 11:09:31;;;;;;;10.33;4.87;;;;;;;;;;4975641;28;20229;-87
2021/11/17 11:12:00;;;;;;;21.73;10.20;;;;;;;;;;4976218;28;20649;-87
2021/11/17 11:14:31;;;;;;;3.17;2.97;;;;;;;;;;4975892;28;20236;-88
2021/11/17 11:17:27;;;;;;;6.13;4.30;;;;;;;;;;4976135;28;20185;-88
2021/11/17 11:20:31;;;;;;;5.43;2.50;;;;;;;;;;4975798;28;20212;-88
2021/11/17 11:23:21;;;;;;;2.57;1.60;;;;;;;;;;4975768;28;20209;-88
2021/11/17 11:26:00;;;;;;;2.87;2.10;;;;;;;;;;4975896;28;20185;-87
2021/11/17 11:28:32;;;;;;;1.77;1.60;;;;;;;;;;4975548;28;20193;-88
2021/11/17 11:31:35;;;;;;;4.67;2.50;;;;;;;;;;4975571;28;20193;-88
2021/11/17 11:34:41;;;;;;;2.20;1.70;;;;;;;;;;4975835;28;20185;-88
2021/11/17 11:37:12;;;;;;;3.13;1.73;;;;;;;;;;4975513;28;20284;-87
2021/11/17 11:39:43;;;;;;;4.53;2.20;;;;;;;;;;4975335;28;20244;-88
2021/11/17 11:42:59;;;;;;;2.70;2.37;;;;;;;;;;4975714;28;20248;-88
2021/11/17 11:45:39;;;;;;;3.83;2.43;;;;;;;;;;4975451;28;20633;-88
2021/11/17 11:48:07;;;;;;;6.87;2.50;;;;;;;;;;4975174;28;20193;-88
2021/11/17 11:50:52;;;;;;;1.80;1.70;;;;;;;;;;4975139;28;20197;-88
2021/11/17 11:53:24;;;;;;;6.33;2.20;;;;;;;;;;4975153;28;20283;-88
2021/11/17 11:56:16;;;;;;;3.70;1.60;;;;;;;;;;4975187;28;20193;-88
2021/11/17 11:58:45;;;;;;;5.77;2.30;;;;;;;;;;4974740;28;20251;-88
2021/11/17 12:01:24;;;;;;;2.40;2.30;;;;;;;;;;4975013;28;20286;-88
2021/11/17 12:03:56;;;;;;;3.57;3.27;;;;;;;;;;4974785;28;20284;-89
2021/11/17 12:06:29;;;;;;;4.70;3.07;;;;;;;;;;4975040;28;20230;-87
2021/11/17 12:09:02;;;;;;;7.03;2.37;;;;;;;;;;4974867;28;20239;-88
2021/11/17 12:11:32;;;;;;;2.40;2.20;;;;;;;;;;4975134;28;20287;-88
2021/11/17 12:14:06;;;;;;;5.93;1.87;;;;;;;;;;4974910;28;20212;-88
2021/11/17 12:16:39;;;;;;;2.30;2.10;;;;;;;;;;4974823;28;20186;-88
2021/11/17 12:19:08;;;;;;;3.87;2.73;;;;;;;;;;4974581;28;20217;-88
2021/11/17 12:21:55;;;;;;;3.23;2.63;;;;;;;;;;4974615;28;20205;-88
2021/11/17 12:24:27;;;;;;;4.23;3.27;;;;;;;;;;4974597;28;20190;-88
2021/11/17 12:27:01;;;;;;;2.83;2.37;;;;;;;;;;4974643;28;20207;-88
2021/11/17 12:29:32;;;;;;;2.50;2.07;;;;;;;;;;4974421;28;20193;-88
2021/11/17 12:32:06;;;;;;;4.97;2.70;;;;;;;;;;4974791;28;20197;-88
2021/11/17 12:34:37;;;;;;;6.13;4.27;;;;;;;;;;4974550;28;20271;-88
2021/11/17 12:37:08;;;;;;;15.30;8.80;;;;;;;;;;4974983;28;20192;-88
2021/11/17 12:39:48;;;;;;;6.43;5.40;;;;;;;;;;4974312;28;20259;-88
2021/11/17 12:42:15;;;;;;;3.97;3.20;;;;;;;;;;4974293;28;20259;-88
2021/11/17 12:44:48;;;;;;;3.10;2.07;;;;;;;;;;4974437;28;20204;-88
2021/11/17 12:47:18;;;;;;;5.47;2.53;;;;;;;;;;4974251;28;20201;-88
2021/11/17 12:49:48;;;;;;;3.80;2.40;;;;;;;;;;4974597;28;20229;-88
2021/11/17 12:52:19;;;;;;;2.13;1.90;;;;;;;;;;4974478;28;20200;-88
2021/11/17 12:54:51;;;;;;;3.40;3.00;;;;;;;;;;4974024;28;20200;-88
2021/11/17 12:57:21;;;;;;;5.93;3.83;;;;;;;;;;4974164;28;20193;-88
2021/11/17 12:59:52;;;;;;;4.30;2.43;;;;;;;;;;4974449;28;20209;-88
2021/11/17 13:02:38;;;;;;;4.30;2.30;;;;;;;;;;4974122;28;20277;-87
2021/11/17 13:05:28;;;;;;;4.87;2.90;;;;;;;;;;4973533;28;20295;-88
2021/11/17 13:07:59;;;;;;;4.00;2.73;;;;;;;;;;4973726;28;20236;-88
2021/11/17 13:10:35;;;;;;;3.17;2.83;;;;;;;;;;4974066;28;20239;-88
2021/11/17 13:13:12;;;;;;;5.60;3.67;;;;;;;;;;4973752;28;20280;-88
2021/11/17 13:15:43;;;;;;;2.73;2.40;;;;;;;;;;4973875;28;20188;-88
2021/11/17 13:18:26;;;;;;;3.17;2.60;;;;;;;;;;4973843;28;20189;-88
2021/11/17 13:21:28;;;;;;;3.93;3.50;;;;;;;;;;4973747;28;20234;-88
2021/11/17 13:24:06;;;;;;;7.17;3.93;;;;;;;;;;4973727;28;20192;-88
2021/11/17 13:26:35;;;;;;;3.60;2.47;;;;;;;;;;4973971;28;20192;-88
2021/11/17 13:29:26;;;;;;;3.30;2.90;;;;;;;;;;4973934;28;20205;-88
2021/11/17 13:32:11;;;;;;;10.57;4.53;;;;;;;;;;4973932;28;20632;-88
2021/11/17 13:34:40;;;;;;;28.17;22.07;;;;;;;;;;4973059;28;20197;-88
2021/11/17 13:37:23;;;;;;;6.57;5.93;;;;;;;;;;4973645;28;20205;-88
2021/11/17 13:39:54;;;;;;;21.93;19.83;;;;;;;;;;4973870;28;20948;-88
2021/11/17 13:42:23;;;;;;;11.40;10.37;;;;;;;;;;4973866;28;20613;-87
2021/11/17 13:44:51;;;;;;;12.77;11.63;;;;;;;;;;4973961;28;20577;-87
2021/11/17 13:47:21;;;;;;;13.67;9.90;;;;;;;;;;4973829;28;20602;-88
2021/11/17 13:49:51;;;;;;;6.90;6.00;;;;;;;;;;4973782;28;20192;-88
2021/11/17 13:52:21;;;;;;;8.90;8.07;;;;;;;;;;4973606;28;20204;-87
2021/11/17 13:54:49;;;;;;;18.03;16.30;;;;;;;;;;4973446;28;20189;-88
2021/11/17 13:57:17;;;;;;;10.83;9.83;;;;;;;;;;4973432;28;20268;-87
2021/11/17 13:59:45;;;;;;;8.33;7.53;;;;;;;;;;4973337;28;20229;-88
2021/11/17 14:02:12;;;;;;;5.93;5.40;;;;;;;;;;4973005;28;20205;-88
2021/11/17 14:04:41;;;;;;;12.43;9.03;;;;;;;;;;4973372;28;20201;-88
2021/11/17 14:07:09;;;;;;;9.17;8.37;;;;;;;;;;4973118;28;20201;-87
2021/11/17 14:09:36;;;;;;;4.77;4.33;;;;;;;;;;4973350;28;20215;-88
2021/11/17 14:12:06;;;;;;;3.33;3.10;;;;;;;;;;4973297;28;20208;-88
2021/11/17 14:14:34;;;;;;;5.27;4.77;;;;;;;;;;4973569;28;20720;-88
2021/11/17 14:17:01;;;;;;;8.87;7.87;;;;;;;;;;4973477;28;20561;-88
2021/11/17 14:19:28;;;;;;;16.03;12.40;;;;;;;;;;4973530;28;20288;-88
2021/11/17 14:21:58;;;;;;;16.60;14.27;;;;;;;;;;4973421;28;20287;-88
2021/11/17 14:24:26;;;;;;;13.53;11.30;;;;;;;;;;4973531;28;20246;-88
2021/11/17 14:26:54;;;;;;;26.50;17.33;;;;;;;;;;4976566;28;20205;-87
2021/11/17 14:29:24;;;;;;;30.07;22.70;;;;;;;;;;4977004;28;20197;-88
2021/11/17 14:31:55;;;;;;;17.33;14.37;;;;;;;;;;4976882;28;20268;-88
2021/11/17 14:34:22;;;;;;;11.07;9.17;;;;;;;;;;4976454;28;20190;-88
2021/11/17 14:36:52;;;;;;;14.30;9.30;;;;;;;;;;4976724;28;20279;-88
2021/11/17 14:39:22;;;;;;;7.77;5.13;;;;;;;;;;4976460;28;20669;-88
2021/11/17 14:41:50;;;;;;;7.93;6.33;;;;;;;;;;4976344;28;20224;-88
2021/11/17 14:44:17;;;;;;;10.50;6.57;;;;;;;;;;4976841;28;20283;-88
2021/11/17 14:46:45;;;;;;;9.27;6.83;;;;;;;;;;4976542;28;20216;-88
2021/11/17 14:49:12;;;;;;;14.00;8.53;;;;;;;;;;4976316;28;20201;-88
2021/11/17 14:51:40;;;;;;;12.40;9.60;;;;;;;;;;4976480;28;20578;-87
2021/11/17 14:54:08;;;;;;;9.43;6.60;;;;;;;;;;4976316;28;20208;-88
2021/11/17 14:56:38;;;;;;;46.10;28.43;;;;;;;;;;4976293;28;20212;-88
2021/11/17 14:59:05;;;;;;;34.00;23.70;;;;;;;;;;4976771;28;20227;-88
2021/11/17 15:01:34;;;;;;;28.77;23.13;;;;;;;;;;4976175;28;20220;-88
2021/11/17 15:04:03;;;;;;;16.73;10.83;;;;;;;;;;4975990;28;20228;-88
2021/11/17 15:06:33;;;;;;;14.43;11.57;;;;;;;;;;4975669;28;20201;-88
2021/11/17 15:09:01;;;;;;;14.23;10.93;;;;;;;;;;4975784;28;20270;-87
2021/11/17 15:11:29;;;;;;;11.80;9.80;;;;;;;;;;4976264;28;20698;-89
2021/11/17 15:13:58;;;;;;;13.20;10.67;;;;;;;;;;4975760;28;20201;-88
2021/11/17 15:16:25;;;;;;;18.87;12.33;;;;;;;;;;4975717;28;20209;-88
2021/11/17 15:18:52;;;;;;;11.40;9.07;;;;;;;;;;4975648;28;20207;-87
2021/11/17 15:21:21;;;;;;;11.60;9.67;;;;;;;;;;4975582;28;20224;-88
2021/11/17 15:23:48;;;;;;;133.00;65.73;;;;;;;;;;4975838;28;20197;-88
2021/11/17 15:26:17;;;;;;;151.00;79.23;;;;;;;;;;4975861;28;20685;-88
2021/11/17 15:28:47;;;;;;;98.83;50.23;;;;;;;;;;4975844;28;20658;-87
2021/11/17 15:31:19;;;;;;;70.07;35.50;;;;;;;;;;4975527;28;20201;-88
2021/11/17 15:33:46;;;;;;;44.63;19.90;;;;;;;;;;4975679;28;20190;-88
2021/11/17 15:36:15;;;;;;;15.83;8.37;;;;;;;;;;4975249;28;20587;-88
2021/11/17 15:38:45;;;;;;;19.90;10.57;;;;;;;;;;4974872;28;20209;-88
2021/11/17 15:41:14;;;;;;;11.13;6.83;;;;;;;;;;4975184;28;20231;-88
2021/11/17 15:43:42;;;;;;;8.37;5.10;;;;;;;;;;4975674;28;20638;-88
2021/11/17 15:46:10;;;;;;;12.43;6.67;;;;;;;;;;4975493;28;20227;-87
2021/11/17 15:48:39;;;;;;;22.80;14.73;;;;;;;;;;4975226;28;20205;-88
2021/11/17 15:51:09;;;;;;;31.10;18.77;;;;;;;;;;4974420;28;20200;-88
2021/11/17 15:53:37;;;;;;;17.53;13.73;;;;;;;;;;4975436;28;20640;-88
2021/11/17 15:56:06;;;;;;;39.70;31.63;;;;;;;;;;4975027;28;20193;-88
2021/11/17 15:58:33;;;;;;;39.50;32.30;;;;;;;;;;4975024;28;20201;-88
2021/11/17 16:01:00;;;;;;;40.73;31.67;;;;;;;;;;4974891;28;20224;-88
2021/11/17 16:03:28;;;;;;;29.20;18.73;;;;;;;;;;4972645;28;20216;-88
2021/11/17 16:06:01;;;;;;;38.23;24.57;;;;;;;;;;4974561;28;20193;-88
2021/11/17 16:08:29;;;;;;;21.27;15.50;;;;;;;;;;4974023;28;20240;-87
2021/11/17 16:10:56;;;;;;;16.97;12.37;;;;;;;;;;4974697;28;20204;-88
2021/11/17 16:13:24;;;;;;;17.93;12.33;;;;;;;;;;4974492;28;20229;-87
2021/11/17 16:15:52;;;;;;;36.77;21.67;;;;;;;;;;4973883;28;20216;-87
2021/11/17 16:18:19;;;;;;;20.60;16.00;;;;;;;;;;4973865;28;20248;-87
2021/11/17 16:20:51;;;;;;;33.10;24.63;;;;;;;;;;4974509;28;20221;-88
2021/11/17 16:26:08;;;;;;;45.20;27.77;;;;;;;;;;4944067;28;20201;-86
2021/11/17 16:28:38;;;;;;;19.93;13.07;;;;;;;;;;4973903;28;20197;-87
2021/11/17 16:31:06;;;;;;;12.03;9.13;;;;;;;;;;4974989;28;20189;-88
2021/11/17 16:33:34;;;;;;;16.63;12.27;;;;;;;;;;4974529;28;20589;-88
2021/11/17 16:36:02;;;;;;;23.73;16.73;;;;;;;;;;4974435;28;20204;-87
2021/11/17 16:38:37;;;;;;;13.73;10.70;;;;;;;;;;4982513;28;20235;-87
2021/11/17 16:41:05;;;;;;;12.50;11.13;;;;;;;;;;4974207;28;20682;-87
2021/11/17 16:43:32;;;;;;;21.30;16.40;;;;;;;;;;4974152;28;20666;-87
2021/11/17 16:46:00;;;;;;;26.27;19.63;;;;;;;;;;4973960;28;20209;-87
2021/11/17 16:48:28;;;;;;;13.57;8.87;;;;;;;;;;4973710;28;20197;-87
2021/11/17 16:50:55;;;;;;;6.17;5.20;;;;;;;;;;4973886;28;20699;-87
2021/11/17 16:53:23;;;;;;;9.40;5.60;;;;;;;;;;4973851;28;20741;-87
2021/11/17 16:55:54;;;;;;;13.83;7.57;;;;;;;;;;4973823;28;20666;-87
2021/11/17 16:58:24;;;;;;;21.97;18.47;;;;;;;;;;4973719;28;20725;-87
2021/11/17 17:00:55;;;;;;;28.57;22.93;;;;;;;;;;4973597;28;20219;-88
2021/11/17 17:03:25;;;;;;;14.83;11.83;;;;;;;;;;4973903;28;20185;-88
2021/11/17 17:05:55;;;;;;;40.13;28.03;;;;;;;;;;4974016;28;20279;-88
2021/11/17 17:08:22;;;;;;;14.73;12.10;;;;;;;;;;4973616;28;20289;-87
2021/11/17 17:10:52;;;;;;;18.43;12.73;;;;;;;;;;4973473;28;20255;-87
2021/11/17 17:13:19;;;;;;;10.70;9.17;;;;;;;;;;4973624;28;20201;-87
2021/11/17 17:15:47;;;;;;;14.40;10.63;;;;;;;;;;4973902;28;20658;-87
2021/11/17 17:18:16;;;;;;;18.77;14.23;;;;;;;;;;4973553;28;20688;-87
2021/11/17 17:20:44;;;;;;;31.57;18.87;;;;;;;;;;4973402;28;20221;-88
2021/11/17 17:23:12;;;;;;;40.57;19.47;;;;;;;;;;4973363;28;20204;-87
2021/11/17 17:25:41;;;;;;;24.13;15.63;;;;;;;;;;4973419;28;20574;-87
2021/11/17 17:28:12;;;;;;;22.57;13.33;;;;;;;;;;4973302;28;20255;-88
2021/11/17 17:30:41;;;;;;;50.07;29.90;;;;;;;;;;4973471;28;20196;-87
2021/11/17 17:33:09;;;;;;;36.83;23.83;;;;;;;;;;4973415;28;20205;-88
2021/11/17 17:35:37;;;;;;;29.90;19.67;;;;;;;;;;4973455;28;20254;-88
2021/11/17 17:38:04;;;;;;;30.43;18.87;;;;;;;;;;4973382;28;20291;-87
2021/11/17 17:40:32;;;;;;;36.07;23.23;;;;;;;;;;4973434;28;20201;-88
2021/11/17 17:43:01;;;;;;;44.07;28.53;;;;;;;;;;4973444;28;20201;-87